Time;durP1;ratioP1;P1;durP2;ratioP2;P2;SDS_P1;SDS_P2;PMS_P1;PMS_P2;Temp;Humidity;BMP_temperature;BMP_pressure;BME280_temperature;BME280_humidity;BME280_pressure;Samples;Min_cycle;Max_cycle;Signal;HPM_P1;HPM_P2
2022/01/15 00:01:13;;;;;;;3.40;3.30;;;15.90;66.20;;;;;;5128850;27;44004;-75
2022/01/15 00:03:41;;;;;;;3.50;3.40;;;15.90;66.30;;;;;;5127785;27;43342;-74
2022/01/15 00:06:10;;;;;;;3.37;3.27;;;15.90;66.50;;;;;;5123998;27;44079;-74
2022/01/15 00:08:39;;;;;;;3.30;3.20;;;16.00;66.30;;;;;;5134621;27;44086;-74
2022/01/15 00:11:09;;;;;;;3.20;3.10;;;16.10;65.90;;;;;;5120352;27;44070;-74
2022/01/15 00:13:42;;;;;;;3.20;3.10;;;16.30;65.40;;;;;;5120895;27;44801;-74
2022/01/15 00:16:24;;;;;;;3.20;3.10;;;16.40;64.90;;;;;;5109940;27;43951;-74
2022/01/15 00:19:04;;;;;;;3.47;3.37;;;16.40;64.60;;;;;;5127599;27;43971;-74
2022/01/15 00:21:34;;;;;;;3.33;3.23;;;16.40;64.70;;;;;;5127217;27;43955;-74
2022/01/15 00:24:03;;;;;;;3.30;3.20;;;16.30;64.90;;;;;;5127946;27;43793;-74
2022/01/15 00:26:32;;;;;;;3.40;3.20;;;16.30;65.20;;;;;;5129901;27;43989;-75
2022/01/15 00:29:02;;;;;;;3.23;3.13;;;16.20;65.40;;;;;;5124264;27;44066;-76
2022/01/15 00:31:32;;;;;;;3.63;3.53;;;16.10;65.50;;;;;;5107427;27;43932;-76
2022/01/15 00:34:01;;;;;;;3.30;3.20;;;16.10;65.70;;;;;;5126035;27;44640;-73
2022/01/15 00:36:30;;;;;;;3.03;2.93;;;16.10;65.90;;;;;;5129365;27;43324;-73
2022/01/15 00:38:58;;;;;;;3.20;3.10;;;16.00;65.90;;;;;;5131332;27;44071;-74
2022/01/15 00:41:27;;;;;;;3.27;3.17;;;16.00;66.10;;;;;;5131594;27;45393;-74
2022/01/15 00:43:55;;;;;;;3.10;3.00;;;16.00;66.10;;;;;;5129002;27;44124;-74
2022/01/15 00:46:26;;;;;;;3.20;3.10;;;16.00;66.30;;;;;;5121853;27;43452;-74
2022/01/15 00:49:00;;;;;;;3.47;3.37;;;16.00;66.10;;;;;;5124188;27;43933;-74
2022/01/15 00:51:34;;;;;;;3.17;3.07;;;16.10;65.70;;;;;;5108555;27;44993;-73
2022/01/15 00:54:04;;;;;;;3.30;3.20;;;16.20;65.50;;;;;;5124758;27;43414;-74
2022/01/15 00:56:33;;;;;;;2.40;2.40;;;16.20;65.40;;;;;;5106525;27;43936;-74
2022/01/15 00:59:02;;;;;;;3.10;3.00;;;16.10;65.40;;;;;;5106592;27;44113;-73
2022/01/15 01:01:34;;;;;;;3.10;3.00;;;16.10;65.60;;;;;;5119356;27;43989;-74
2022/01/15 01:04:03;;;;;;;3.50;3.30;;;16.10;65.80;;;;;;5126350;27;45746;-74
2022/01/15 01:06:32;;;;;;;3.17;3.07;;;16.00;65.80;;;;;;5110746;27;43534;-76
2022/01/15 01:09:02;;;;;;;3.37;3.20;;;16.00;66.00;;;;;;5120256;27;44204;-74
2022/01/15 01:11:43;;;;;;;3.00;2.90;;;16.00;66.20;;;;;;5120066;27;44876;-74
2022/01/15 01:25:27;;;;;;;3.10;3.00;;;15.90;66.60;;;;;;5121402;27;44934;-74
2022/01/15 01:28:04;;;;;;;3.07;2.97;;;15.90;66.60;;;;;;5117739;27;44066;-73
2022/01/15 01:31:07;;;;;;;2.83;2.83;;;15.90;66.40;;;;;;5111330;27;43355;-73
2022/01/15 01:33:42;;;;;;;3.23;3.13;;;16.10;66.10;;;;;;5121064;27;44014;-74
2022/01/15 01:36:18;;;;;;;3.00;2.90;;;16.30;65.70;;;;;;5123352;27;44410;-75
2022/01/15 01:38:52;;;;;;;3.23;3.13;;;16.40;65.10;;;;;;5110237;27;44015;-74
2022/01/15 01:41:22;;;;;;;2.80;2.80;;;16.40;64.70;;;;;;5115309;27;43985;-74
2022/01/15 01:43:55;;;;;;;2.90;2.80;;;16.40;64.60;;;;;;5129435;27;45725;-75
2022/01/15 01:46:39;;;;;;;2.67;2.60;;;16.30;64.80;;;;;;5129427;27;44379;-74
2022/01/15 01:49:14;;;;;;;3.20;3.10;;;16.30;65.00;;;;;;5126692;27;43329;-74
2022/01/15 01:51:43;;;;;;;3.17;3.07;;;16.20;65.60;;;;;;5125685;27;43898;-73
2022/01/15 01:54:13;;;;;;;3.20;3.10;;;16.10;65.40;;;;;;5128599;27;45561;-74
2022/01/15 01:56:43;;;;;;;3.20;3.10;;;16.10;65.60;;;;;;5126503;27;43438;-74
2022/01/15 01:59:14;;;;;;;2.80;2.80;;;16.10;65.80;;;;;;5110901;27;43388;-73
2022/01/15 02:01:43;;;;;;;3.00;2.90;;;16.00;65.90;;;;;;5127705;27;43985;-75
2022/01/15 02:04:15;;;;;;;3.10;3.00;;;16.00;66.00;;;;;;5118138;27;44095;-75
2022/01/15 02:06:44;;;;;;;3.20;3.10;;;16.00;66.10;;;;;;5126861;27;43421;-75
2022/01/15 02:09:13;;;;;;;3.17;3.07;;;15.90;66.20;;;;;;5110872;27;43929;-75
2022/01/15 02:11:43;;;;;;;2.90;2.90;;;16.00;66.20;;;;;;5127979;27;44045;-76
2022/01/15 02:14:21;;;;;;;3.07;2.97;;;16.10;65.80;;;;;;5118656;27;43958;-76
2022/01/15 02:16:50;;;;;;;2.93;2.87;;;16.10;65.40;;;;;;5122773;27;45839;-75
2022/01/15 02:19:20;;;;;;;3.30;3.20;;;16.10;65.40;;;;;;5129494;27;44052;-75
2022/01/15 02:24:37;;;;;;;2.97;2.87;;;16.10;65.80;;;;;;5121668;27;44114;-75
2022/01/15 02:27:07;;;;;;;2.80;2.70;;;16.00;65.80;;;;;;5128011;27;44513;-75
2022/01/15 02:29:37;;;;;;;2.50;2.50;;;16.00;66.10;;;;;;5125096;27;44004;-75
2022/01/15 02:32:07;;;;;;;3.20;3.10;;;15.90;66.00;;;;;;5119470;27;44343;-75
2022/01/15 02:34:35;;;;;;;3.33;3.23;;;15.90;66.20;;;;;;5121141;27;44739;-75
2022/01/15 02:37:05;;;;;;;2.90;2.90;;;15.90;66.20;;;;;;5109670;27;43916;-75
2022/01/15 02:39:35;;;;;;;3.13;3.03;;;15.90;66.30;;;;;;5109753;27;43879;-75
2022/01/15 02:42:04;;;;;;;2.93;2.93;;;15.90;66.40;;;;;;5112276;27;43884;-75
2022/01/15 02:44:37;;;;;;;2.63;2.63;;;15.90;66.40;;;;;;5127764;27;47071;-75
2022/01/15 02:49:53;;;;;;;2.83;2.77;;;15.90;66.60;;;;;;5111723;27;43839;-74
2022/01/15 02:52:24;;;;;;;2.83;2.73;;;15.90;66.30;;;;;;5127862;27;43958;-74
2022/01/15 02:54:52;;;;;;;2.53;2.53;;;16.10;66.00;;;;;;5128582;27;46058;-77
2022/01/15 02:57:21;;;;;;;2.77;2.77;;;16.20;65.40;;;;;;5109919;27;43512;-75
2022/01/15 02:59:50;;;;;;;2.80;2.80;;;16.30;65.00;;;;;;5125687;27;44046;-75
2022/01/15 03:02:17;;;;;;;2.70;2.70;;;16.40;64.60;;;;;;5129902;27;43982;-75
2022/01/15 03:04:47;;;;;;;2.60;2.60;;;16.30;64.70;;;;;;5122360;27;45778;-76
2022/01/15 03:07:15;;;;;;;2.50;2.50;;;16.30;64.90;;;;;;5125310;27;43754;-76
2022/01/15 03:09:45;;;;;;;2.63;2.53;;;16.20;65.00;;;;;;5131432;27;44419;-75
2022/01/15 03:12:15;;;;;;;2.80;2.80;;;16.20;65.20;;;;;;5131834;27;43605;-75
2022/01/15 03:14:46;;;;;;;2.97;2.90;;;16.10;65.40;;;;;;5111800;27;44051;-75
2022/01/15 03:17:15;;;;;;;2.67;2.67;;;16.10;65.60;;;;;;5123612;27;43810;-76
2022/01/15 03:19:44;;;;;;;2.63;2.63;;;16.00;65.80;;;;;;5111792;27;43887;-75
2022/01/15 03:22:13;;;;;;;2.40;2.40;;;16.00;65.90;;;;;;5123310;27;43957;-75
2022/01/15 03:24:41;;;;;;;2.80;2.80;;;15.90;65.90;;;;;;5109026;27;43848;-75
2022/01/15 03:27:12;;;;;;;2.40;2.40;;;15.90;66.00;;;;;;5126993;27;44143;-74
2022/01/15 03:29:42;;;;;;;2.67;2.67;;;15.90;66.10;;;;;;5113963;27;43871;-75
2022/01/15 03:32:11;;;;;;;2.80;2.70;;;15.90;66.30;;;;;;5124359;27;43969;-75
2022/01/15 03:34:43;;;;;;;2.63;2.63;;;16.00;66.10;;;;;;5125962;27;45353;-75
2022/01/15 03:37:12;;;;;;;2.70;2.70;;;16.10;65.60;;;;;;5122901;27;43486;-75
2022/01/15 03:39:41;;;;;;;2.67;2.60;;;16.20;65.20;;;;;;5127944;27;43855;-75
2022/01/15 03:42:12;;;;;;;2.57;2.53;;;16.20;65.10;;;;;;5129494;27;44013;-77
2022/01/15 03:44:41;;;;;;;2.80;2.80;;;16.20;65.20;;;;;;5107763;27;45678;-75
2022/01/15 03:47:11;;;;;;;2.67;2.67;;;16.20;65.30;;;;;;5129866;27;43979;-75
2022/01/15 03:49:40;;;;;;;2.80;2.80;;;16.10;65.50;;;;;;5117000;27;43884;-75
2022/01/15 03:52:10;;;;;;;3.00;2.90;;;16.10;65.70;;;;;;5122063;27;44092;-75
2022/01/15 03:54:38;;;;;;;2.30;2.30;;;16.10;65.80;;;;;;5127962;27;44126;-76
2022/01/15 03:57:08;;;;;;;2.70;2.70;;;16.00;65.90;;;;;;5121319;27;43960;-75
2022/01/15 03:59:38;;;;;;;2.70;2.70;;;16.00;66.00;;;;;;5128295;27;44002;-75
2022/01/15 04:02:07;;;;;;;2.87;2.83;;;16.00;66.10;;;;;;5122421;27;44178;-76
2022/01/15 04:04:35;;;;;;;2.60;2.60;;;16.00;66.20;;;;;;5129895;27;45403;-76
2022/01/15 04:07:04;;;;;;;2.60;2.60;;;15.90;66.10;;;;;;5128281;27;43693;-76
2022/01/15 04:09:46;;;;;;;2.60;2.60;;;15.90;66.10;;;;;;5127257;27;44000;-76
2022/01/15 04:12:15;;;;;;;2.77;2.67;;;15.90;66.20;;;;;;5110677;27;43978;-76
2022/01/15 04:14:46;;;;;;;2.77;2.77;;;16.00;66.20;;;;;;5130089;27;44435;-76
2022/01/15 04:17:15;;;;;;;2.43;2.43;;;16.10;65.80;;;;;;5127325;27;43797;-76
2022/01/15 04:19:44;;;;;;;2.57;2.57;;;16.10;65.30;;;;;;5128453;27;43974;-75
2022/01/15 04:22:12;;;;;;;2.57;2.57;;;16.10;65.30;;;;;;5128399;27;44043;-75
2022/01/15 04:24:43;;;;;;;2.60;2.60;;;16.10;65.40;;;;;;5127839;27;43891;-76
2022/01/15 04:27:11;;;;;;;2.60;2.60;;;16.10;65.60;;;;;;5128213;27;43998;-75
2022/01/15 04:29:39;;;;;;;2.33;2.33;;;16.00;65.70;;;;;;5115468;27;43503;-76
2022/01/15 04:32:10;;;;;;;2.40;2.40;;;16.00;65.80;;;;;;5116730;27;43434;-76
2022/01/15 04:34:40;;;;;;;2.70;2.70;;;16.00;65.90;;;;;;5119250;27;44018;-76
2022/01/15 04:37:13;;;;;;;2.60;2.60;;;15.90;65.90;;;;;;5126545;27;43966;-76
2022/01/15 04:39:42;;;;;;;2.50;2.50;;;15.90;66.00;;;;;;5127011;27;43967;-75
2022/01/15 04:42:10;;;;;;;2.57;2.57;;;15.90;66.20;;;;;;5128607;27;43418;-75
2022/01/15 04:44:38;;;;;;;2.23;2.23;;;15.90;66.20;;;;;;5127694;27;44044;-75
2022/01/15 04:47:10;;;;;;;2.50;2.50;;;15.80;66.10;;;;;;5120571;27;44040;-75
2022/01/15 04:49:38;;;;;;;2.50;2.50;;;15.90;66.20;;;;;;5120043;27;44050;-75
2022/01/15 04:52:07;;;;;;;2.60;2.60;;;15.90;66.20;;;;;;5107953;27;43930;-77
2022/01/15 04:54:36;;;;;;;3.00;2.90;;;16.00;66.00;;;;;;5105975;27;45296;-75
2022/01/15 04:57:06;;;;;;;2.60;2.60;;;16.10;65.60;;;;;;5126029;27;43859;-75
2022/01/15 04:59:35;;;;;;;2.60;2.50;;;16.30;65.20;;;;;;5141725;27;43946;-74
2022/01/15 05:02:03;;;;;;;2.80;2.80;;;16.50;64.80;;;;;;5108086;27;44046;-75
2022/01/15 05:04:33;;;;;;;2.50;2.50;;;16.70;64.20;;;;;;5129668;27;45411;-75
2022/01/15 05:07:03;;;;;;;2.70;2.60;;;16.80;63.60;;;;;;5132179;27;43500;-75
2022/01/15 05:09:31;;;;;;;2.50;2.50;;;17.00;63.30;;;;;;5114622;27;44001;-77
2022/01/15 05:12:03;;;;;;;2.57;2.50;;;17.10;63.00;;;;;;5111814;27;43368;-75
2022/01/15 05:14:32;;;;;;;2.53;2.53;;;17.10;62.70;;;;;;5129076;27;44292;-75
2022/01/15 05:17:01;;;;;;;2.40;2.40;;;17.20;62.60;;;;;;5129938;27;44278;-75
2022/01/15 05:19:30;;;;;;;2.63;2.63;;;17.10;62.50;;;;;;5130868;27;43978;-76
2022/01/15 05:22:00;;;;;;;2.53;2.40;;;17.00;62.50;;;;;;5131184;27;43926;-76
2022/01/15 05:24:30;;;;;;;2.30;2.30;;;16.90;62.90;;;;;;5131006;27;44788;-75
2022/01/15 05:26:58;;;;;;;2.53;2.53;;;16.70;63.30;;;;;;5129183;27;45106;-76
2022/01/15 05:29:27;;;;;;;2.73;2.73;;;16.60;63.70;;;;;;5129908;27;44050;-75
2022/01/15 05:31:54;;;;;;;2.40;2.40;;;16.50;64.00;;;;;;5131180;27;44037;-75
2022/01/15 05:34:22;;;;;;;2.37;2.37;;;16.40;64.30;;;;;;5130573;27;44981;-77
2022/01/15 05:36:51;;;;;;;2.40;2.40;;;16.30;64.60;;;;;;5130597;27;44081;-75
2022/01/15 05:39:21;;;;;;;2.70;2.70;;;16.20;65.00;;;;;;5131745;27;43416;-76
2022/01/15 05:41:49;;;;;;;2.20;2.20;;;16.20;65.20;;;;;;5111556;27;44070;-76
2022/01/15 05:44:17;;;;;;;2.30;2.30;;;16.30;65.00;;;;;;5110533;27;43993;-76
2022/01/15 05:46:46;;;;;;;2.27;2.27;;;16.30;64.80;;;;;;5128452;27;44754;-76
2022/01/15 05:49:14;;;;;;;2.50;2.50;;;16.30;64.70;;;;;;5111641;27;43939;-76
2022/01/15 05:51:42;;;;;;;2.37;2.37;;;16.20;64.70;;;;;;5128333;27;44062;-76
2022/01/15 05:54:11;;;;;;;2.87;2.87;;;16.20;65.00;;;;;;5123996;27;43943;-76
2022/01/15 05:56:42;;;;;;;2.43;2.43;;;16.10;65.10;;;;;;5131396;27;43688;-76
2022/01/15 05:59:10;;;;;;;2.63;2.63;;;16.10;65.40;;;;;;5129023;27;44104;-76
2022/01/15 06:01:38;;;;;;;2.60;2.53;;;16.00;65.50;;;;;;5111160;27;43938;-78
2022/01/15 06:04:07;;;;;;;2.67;2.67;;;16.00;65.60;;;;;;5130872;27;46051;-75
2022/01/15 06:06:35;;;;;;;2.70;2.70;;;16.00;65.80;;;;;;5129364;27;44025;-75
2022/01/15 06:09:04;;;;;;;2.80;2.80;;;15.90;65.80;;;;;;5117493;27;43934;-75
2022/01/15 06:11:34;;;;;;;2.47;2.47;;;15.90;65.90;;;;;;5136576;27;43992;-75
2022/01/15 06:14:04;;;;;;;2.67;2.67;;;15.90;66.00;;;;;;5117847;27;43961;-75
2022/01/15 06:16:33;;;;;;;2.70;2.70;;;15.90;66.00;;;;;;5122238;27;43860;-75
2022/01/15 06:19:01;;;;;;;2.63;2.60;;;15.90;66.10;;;;;;5108773;27;43884;-75
2022/01/15 06:21:29;;;;;;;2.53;2.53;;;15.90;66.10;;;;;;5122918;27;43887;-76
2022/01/15 06:23:57;;;;;;;2.60;2.60;;;16.10;65.80;;;;;;5122032;27;44045;-76
2022/01/15 06:26:25;;;;;;;2.57;2.57;;;16.20;65.30;;;;;;5109900;27;44024;-76
2022/01/15 06:28:53;;;;;;;2.50;2.50;;;16.30;64.90;;;;;;5119807;27;43994;-76
2022/01/15 06:31:23;;;;;;;2.60;2.60;;;16.40;64.70;;;;;;5123470;27;44080;-77
2022/01/15 06:33:51;;;;;;;2.40;2.40;;;16.30;64.50;;;;;;5122792;27;44096;-80
2022/01/15 06:36:20;;;;;;;2.47;2.47;;;16.30;64.60;;;;;;5120141;27;43532;-77
2022/01/15 06:38:48;;;;;;;2.23;2.23;;;16.20;64.80;;;;;;5113802;27;44038;-77
2022/01/15 06:41:16;;;;;;;2.47;2.47;;;16.20;65.10;;;;;;5110332;27;44143;-78
2022/01/15 06:43:45;;;;;;;2.63;2.63;;;16.10;65.30;;;;;;5124223;27;45078;-77
2022/01/15 06:46:16;;;;;;;2.30;2.30;;;16.10;65.50;;;;;;5123879;27;45313;-77
2022/01/15 06:48:47;;;;;;;2.50;2.50;;;16.00;65.50;;;;;;5126748;27;43928;-77
2022/01/15 06:51:17;;;;;;;2.60;2.60;;;16.00;65.70;;;;;;5130923;27;43953;-77
2022/01/15 06:53:46;;;;;;;2.50;2.50;;;15.90;65.80;;;;;;5130918;27;45310;-77
2022/01/15 06:56:15;;;;;;;2.60;2.60;;;15.90;65.90;;;;;;5130128;27;44088;-77
2022/01/15 06:58:43;;;;;;;2.40;2.40;;;15.90;66.00;;;;;;5129181;27;43999;-77
2022/01/15 07:01:11;;;;;;;2.33;2.33;;;15.90;66.10;;;;;;5128938;27;44173;-77
2022/01/15 07:03:39;;;;;;;2.33;2.33;;;16.00;66.50;;;;;;5127827;27;45614;-77
2022/01/15 07:06:09;;;;;;;2.90;2.80;;;16.20;65.50;;;;;;5122094;27;43910;-77
2022/01/15 07:08:37;;;;;;;2.57;2.57;;;16.30;65.10;;;;;;5110519;27;44004;-77
2022/01/15 07:11:05;;;;;;;2.60;2.60;;;16.30;65.50;;;;;;5125490;27;44334;-77
2022/01/15 07:13:34;;;;;;;2.30;2.30;;;16.30;64.90;;;;;;5125435;27;43867;-77
2022/01/15 07:16:02;;;;;;;2.37;2.37;;;16.20;65.00;;;;;;5129058;27;44169;-77
2022/01/15 07:18:31;;;;;;;2.40;2.40;;;16.10;65.10;;;;;;5129035;27;43993;-79
2022/01/15 07:20:59;;;;;;;2.67;2.67;;;16.10;65.30;;;;;;5121124;27;43941;-77
2022/01/15 07:23:29;;;;;;;2.20;2.20;;;16.10;65.60;;;;;;5120736;27;43618;-77
2022/01/15 07:25:57;;;;;;;2.40;2.40;;;16.00;65.60;;;;;;5130650;27;43451;-77
2022/01/15 07:28:29;;;;;;;2.47;2.47;;;16.00;65.80;;;;;;5117898;27;43380;-77
2022/01/15 07:30:59;;;;;;;2.20;2.20;;;15.90;65.80;;;;;;5116279;27;43451;-77
2022/01/15 07:33:28;;;;;;;2.70;2.70;;;15.90;65.90;;;;;;5132505;27;46354;-77
2022/01/15 07:35:58;;;;;;;2.70;2.50;;;15.90;66.00;;;;;;5130180;27;43911;-77
2022/01/15 07:38:29;;;;;;;2.80;2.70;;;15.90;66.00;;;;;;5120025;27;43942;-77
2022/01/15 07:40:59;;;;;;;2.30;2.30;;;15.90;66.20;;;;;;5128070;27;43934;-77
2022/01/15 07:43:30;;;;;;;2.27;2.27;;;15.90;66.10;;;;;;5135723;27;44146;-77
2022/01/15 07:46:00;;;;;;;2.57;2.57;;;16.10;66.40;;;;;;5131967;27;43986;-77
2022/01/15 07:48:29;;;;;;;2.27;2.27;;;16.20;65.30;;;;;;5117671;27;43911;-77
2022/01/15 07:50:58;;;;;;;2.57;2.57;;;16.20;65.00;;;;;;5118803;27;43893;-78
2022/01/15 07:53:26;;;;;;;2.33;2.33;;;16.20;65.10;;;;;;5128523;27;43990;-78
2022/01/15 07:55:58;;;;;;;2.40;2.40;;;16.10;65.10;;;;;;5122081;27;44018;-78
2022/01/15 07:58:27;;;;;;;2.60;2.60;;;16.10;65.30;;;;;;5122048;27;43330;-78
2022/01/15 08:00:56;;;;;;;2.40;2.40;;;16.00;65.40;;;;;;5128790;27;44108;-77
2022/01/15 08:03:31;;;;;;;2.40;2.40;;;16.00;65.60;;;;;;5127851;27;44841;-77
2022/01/15 08:06:00;;;;;;;2.13;2.13;;;15.90;65.70;;;;;;5110461;27;44708;-77
2022/01/15 08:08:28;;;;;;;2.37;2.37;;;15.90;65.90;;;;;;5121288;27;44037;-77
2022/01/15 08:10:58;;;;;;;2.40;2.40;;;15.90;66.00;;;;;;5126880;27;44034;-77
2022/01/15 08:13:27;;;;;;;2.40;2.40;;;15.90;66.10;;;;;;5127366;27;45588;-76
2022/01/15 08:15:57;;;;;;;2.23;2.23;;;15.80;66.10;;;;;;5127773;27;43557;-77
2022/01/15 08:18:26;;;;;;;2.57;2.57;;;15.80;66.20;;;;;;5128179;27;43960;-77
2022/01/15 08:20:55;;;;;;;2.40;2.40;;;15.80;66.30;;;;;;5128915;27;44071;-77
2022/01/15 08:23:24;;;;;;;2.63;2.63;;;15.80;66.30;;;;;;5127570;27;44056;-79
2022/01/15 08:25:53;;;;;;;2.20;2.20;;;16.00;66.10;;;;;;5124360;27;44532;-75
2022/01/15 08:28:24;;;;;;;2.40;2.40;;;16.10;65.60;;;;;;5112165;27;43923;-76
2022/01/15 08:30:53;;;;;;;2.57;2.57;;;16.20;65.10;;;;;;5129281;27;44132;-76
2022/01/15 08:33:23;;;;;;;2.20;2.20;;;16.30;64.70;;;;;;5143478;27;45974;-76
2022/01/15 08:35:51;;;;;;;2.40;2.40;;;16.30;64.70;;;;;;5109856;27;43973;-75
2022/01/15 08:38:19;;;;;;;2.47;2.47;;;16.20;64.80;;;;;;5107556;27;43409;-75
2022/01/15 08:40:47;;;;;;;2.30;2.30;;;16.20;65.10;;;;;;5121198;27;44009;-76
2022/01/15 08:43:15;;;;;;;2.37;2.37;;;16.10;65.30;;;;;;5126329;27;43949;-76
2022/01/15 08:45:47;;;;;;;2.53;2.53;;;16.10;65.40;;;;;;5121735;27;45701;-76
2022/01/15 08:48:19;;;;;;;2.50;2.50;;;16.00;65.60;;;;;;5128232;27;43982;-75
2022/01/15 08:50:49;;;;;;;2.50;2.50;;;16.00;65.80;;;;;;5109051;27;43529;-75
2022/01/15 08:53:21;;;;;;;2.40;2.40;;;15.90;65.80;;;;;;5107700;27;44959;-75
2022/01/15 08:55:51;;;;;;;2.30;2.30;;;15.90;65.90;;;;;;5123267;27;44278;-75
2022/01/15 08:58:20;;;;;;;2.80;2.70;;;15.90;66.10;;;;;;5107654;27;43416;-74
2022/01/15 09:00:54;;;;;;;2.50;2.50;;;15.90;66.10;;;;;;5107178;27;43904;-75
2022/01/15 09:03:23;;;;;;;2.47;2.47;;;15.80;66.20;;;;;;5107869;27;44008;-75
2022/01/15 09:05:51;;;;;;;2.53;2.53;;;15.90;66.10;;;;;;5118253;27;43956;-76
2022/01/15 09:08:24;;;;;;;2.57;2.47;;;16.00;66.50;;;;;;5126620;27;43502;-76
2022/01/15 09:10:53;;;;;;;2.07;2.07;;;16.00;65.60;;;;;;5120301;27;43994;-76
2022/01/15 09:13:21;;;;;;;2.20;2.20;;;16.00;65.60;;;;;;5125424;27;45805;-76
2022/01/15 09:15:51;;;;;;;2.30;2.30;;;16.00;65.60;;;;;;5127094;27;44071;-76
2022/01/15 09:18:19;;;;;;;2.50;2.50;;;15.90;65.60;;;;;;5127116;27;43886;-76
2022/01/15 09:20:48;;;;;;;2.20;2.20;;;15.90;65.80;;;;;;5127231;27;43513;-76
2022/01/15 09:23:17;;;;;;;2.33;2.33;;;15.90;65.90;;;;;;5126555;27;44297;-76
2022/01/15 09:25:45;;;;;;;2.13;2.13;;;15.80;66.00;;;;;;5127229;27;44025;-76
2022/01/15 09:31:01;;;;;;;2.27;2.27;;;15.80;66.20;;;;;;5127701;27;43995;-76
2022/01/15 09:33:30;;;;;;;2.03;2.03;;;15.80;66.20;;;;;;5116467;27;44637;-76
2022/01/15 09:35:59;;;;;;;2.50;2.50;;;15.80;66.40;;;;;;5123171;27;44588;-76
2022/01/15 09:38:29;;;;;;;2.27;2.27;;;15.80;66.40;;;;;;5127954;27;43389;-76
2022/01/15 09:40:58;;;;;;;2.20;2.20;;;15.80;66.40;;;;;;5143570;27;43616;-76
2022/01/15 09:43:26;;;;;;;2.63;2.43;;;15.80;66.40;;;;;;5143435;27;44108;-74
2022/01/15 09:45:55;;;;;;;2.50;2.50;;;15.90;66.40;;;;;;5126302;27;44772;-77
2022/01/15 09:48:26;;;;;;;2.27;2.27;;;16.00;66.10;;;;;;5107394;27;43437;-76
2022/01/15 09:50:54;;;;;;;2.40;2.30;;;16.10;65.40;;;;;;5121283;27;43572;-76
2022/01/15 09:53:23;;;;;;;2.13;2.13;;;16.20;65.00;;;;;;5123262;27;44043;-78
2022/01/15 09:55:52;;;;;;;2.40;2.40;;;16.30;64.80;;;;;;5126422;27;44918;-78
2022/01/15 09:58:21;;;;;;;2.33;2.33;;;16.20;64.70;;;;;;5125276;27;43405;-77
2022/01/15 10:00:50;;;;;;;2.20;2.20;;;16.20;65.00;;;;;;5124177;27;44453;-80
2022/01/15 10:03:19;;;;;;;2.37;2.37;;;16.10;65.10;;;;;;5110745;27;44296;-76
2022/01/15 10:05:50;;;;;;;2.13;2.13;;;16.10;65.40;;;;;;5110270;27;44237;-74
2022/01/15 10:08:20;;;;;;;2.60;2.57;;;16.00;65.60;;;;;;5122728;27;44068;-75
2022/01/15 10:10:48;;;;;;;2.20;2.20;;;16.00;65.80;;;;;;5110319;27;44002;-75
2022/01/15 10:13:17;;;;;;;2.20;2.20;;;16.00;65.90;;;;;;5121122;27;46362;-75
2022/01/15 10:15:46;;;;;;;3.07;2.83;;;15.90;65.90;;;;;;5130136;27;44102;-75
2022/01/15 10:18:22;;;;;;;2.30;2.20;;;15.90;66.00;;;;;;5127955;27;43497;-75
2022/01/15 10:20:53;;;;;;;2.13;2.13;;;15.80;66.00;;;;;;5112950;27;43943;-74
2022/01/15 10:23:23;;;;;;;2.10;2.10;;;15.80;66.20;;;;;;5120448;27;43917;-74
2022/01/15 10:26:11;;;;;;;2.10;2.10;;;15.90;66.10;;;;;;5126493;27;43987;-76
2022/01/15 10:28:56;;;;;;;2.40;2.30;;;16.00;65.60;;;;;;5109280;27;43914;-77
2022/01/15 10:31:26;;;;;;;2.20;2.20;;;16.00;65.50;;;;;;5127288;27;43455;-78
2022/01/15 10:33:55;;;;;;;2.40;2.30;;;16.00;65.60;;;;;;5125755;27;44085;-77
2022/01/15 10:36:25;;;;;;;2.20;2.20;;;16.00;65.80;;;;;;5129298;27;43977;-76
2022/01/15 10:38:53;;;;;;;2.37;2.37;;;15.90;65.80;;;;;;5128012;27;43943;-76
2022/01/15 10:41:35;;;;;;;2.23;2.23;;;15.90;66.00;;;;;;5128185;27;43886;-77
2022/01/15 10:44:24;;;;;;;2.30;2.30;;;15.90;66.20;;;;;;5128673;27;45219;-78
2022/01/15 10:46:53;;;;;;;2.33;2.33;;;15.90;66.30;;;;;;5129652;27;43911;-76
2022/01/15 10:49:22;;;;;;;2.47;2.40;;;15.90;66.40;;;;;;5128713;27;43980;-76
2022/01/15 10:52:13;;;;;;;2.70;2.60;;;15.80;66.30;;;;;;5114722;27;44063;-76
2022/01/15 10:54:57;;;;;;;2.90;2.63;;;15.80;66.40;;;;;;5128123;27;46362;-76
2022/01/15 10:57:27;;;;;;;3.17;2.87;;;15.80;66.40;;;;;;5129305;27;44770;-76
2022/01/15 10:59:58;;;;;;;3.80;3.50;;;15.80;66.40;;;;;;5128688;27;43950;-76
2022/01/15 11:02:26;;;;;;;4.00;3.60;;;15.80;66.40;;;;;;5108135;27;44012;-76
2022/01/15 11:04:59;;;;;;;6.23;4.03;;;15.90;66.50;;;;;;5107986;27;46840;-76
2022/01/15 11:07:28;;;;;;;10.23;4.97;;;16.00;66.10;;;;;;5109370;27;43409;-76
2022/01/15 11:09:56;;;;;;;8.07;4.50;;;16.20;65.80;;;;;;5122102;27;44024;-77
2022/01/15 11:12:26;;;;;;;9.27;4.57;;;16.30;65.20;;;;;;5109656;27;43525;-77
2022/01/15 11:14:54;;;;;;;9.23;4.50;;;16.30;64.60;;;;;;5123756;27;43967;-75
2022/01/15 11:17:23;;;;;;;9.63;5.13;;;16.30;64.60;;;;;;5126873;27;44821;-75
2022/01/15 11:19:53;;;;;;;11.63;4.97;;;16.30;64.80;;;;;;5121153;27;44014;-75
2022/01/15 11:22:22;;;;;;;16.20;5.53;;;16.20;65.00;;;;;;5113553;27;43970;-76
2022/01/15 11:24:53;;;;;;;11.10;5.30;;;16.10;65.10;;;;;;5121651;27;44367;-76
2022/01/15 11:27:21;;;;;;;13.17;5.77;;;16.10;65.50;;;;;;5127737;27;43942;-76
2022/01/15 11:29:49;;;;;;;22.60;6.40;;;16.00;65.80;;;;;;5125433;27;43953;-76
2022/01/15 11:32:18;;;;;;;21.27;6.90;;;16.00;66.10;;;;;;5125050;27;43568;-76
2022/01/15 11:35:01;;;;;;;20.30;7.07;;;16.00;66.30;;;;;;5121109;27;46637;-76
2022/01/15 11:37:30;;;;;;;22.20;7.20;;;16.00;66.40;;;;;;5125774;27;44588;-76
2022/01/15 11:40:00;;;;;;;16.13;6.17;;;16.00;66.40;;;;;;5106873;27;43911;-76
2022/01/15 11:42:35;;;;;;;27.17;7.83;;;16.00;66.20;;;;;;5124424;27;44035;-76
2022/01/15 11:45:04;;;;;;;20.87;7.00;;;16.00;65.90;;;;;;5108716;27;43951;-76
2022/01/15 11:47:32;;;;;;;32.80;7.33;;;16.00;65.60;;;;;;5108625;27;43919;-76
2022/01/15 11:50:02;;;;;;;27.27;6.53;;;16.10;65.20;;;;;;5108546;27;44077;-76
2022/01/15 11:52:34;;;;;;;25.27;7.57;;;16.20;65.30;;;;;;5128571;27;43907;-76
2022/01/15 11:55:24;;;;;;;46.53;8.60;;;16.20;65.40;;;;;;5126591;27;45413;-76
2022/01/15 11:57:54;;;;;;;40.17;8.10;;;16.20;66.20;;;;;;5127329;27;43977;-75
2022/01/15 12:00:43;;;;;;;34.87;8.00;;;16.20;67.10;;;;;;5128145;27;44031;-76
2022/01/15 12:03:13;;;;;;;41.40;8.43;;;16.30;67.70;;;;;;5129402;27;43382;-75
2022/01/15 12:05:46;;;;;;;45.63;9.00;;;16.30;68.00;;;;;;5128648;27;43963;-74
2022/01/15 12:08:33;;;;;;;36.73;8.67;;;16.30;68.10;;;;;;5108730;27;44001;-75
2022/01/15 12:11:05;;;;;;;44.37;9.63;;;16.20;68.20;;;;;;5110101;27;44014;-76
2022/01/15 12:13:51;;;;;;;37.17;8.57;;;16.20;69.10;;;;;;5124909;27;43623;-75
2022/01/15 12:16:37;;;;;;;29.40;8.07;;;16.20;68.80;;;;;;5127010;27;44112;-76
2022/01/15 12:19:06;;;;;;;24.20;7.40;;;16.20;68.40;;;;;;5141953;27;44024;-76
2022/01/15 12:21:54;;;;;;;25.73;8.63;;;16.20;68.20;;;;;;5120309;27;43998;-77
2022/01/15 12:24:44;;;;;;;35.20;8.50;;;16.10;67.50;;;;;;5108949;27;43383;-76
2022/01/15 12:27:15;;;;;;;28.03;7.90;;;16.20;67.30;;;;;;5123118;27;44043;-76
2022/01/15 12:29:44;;;;;;;25.20;7.90;;;16.40;66.80;;;;;;5126579;27;44038;-75
2022/01/15 12:32:13;;;;;;;22.90;7.17;;;16.60;66.20;;;;;;5125654;27;43359;-75
2022/01/15 12:34:42;;;;;;;20.80;7.83;;;16.60;65.50;;;;;;5121956;27;43513;-76
2022/01/15 12:37:15;;;;;;;16.77;7.13;;;16.60;65.30;;;;;;5123833;27;46455;-76
2022/01/15 12:39:43;;;;;;;16.20;5.97;;;16.50;65.60;;;;;;5108230;27;43773;-76
2022/01/15 12:42:13;;;;;;;18.63;7.27;;;16.50;66.50;;;;;;5123694;27;43907;-77
2022/01/15 12:44:44;;;;;;;18.23;7.03;;;16.40;66.70;;;;;;5106940;27;44027;-76
2022/01/15 12:47:13;;;;;;;13.40;6.23;;;16.30;66.70;;;;;;5120461;27;44151;-77
2022/01/15 12:49:42;;;;;;;15.30;6.77;;;16.30;66.70;;;;;;5137474;27;43466;-75
2022/01/15 12:52:12;;;;;;;9.67;6.37;;;16.20;66.80;;;;;;5106039;27;44072;-75
2022/01/15 12:54:40;;;;;;;10.53;6.40;;;16.10;66.10;;;;;;5107580;27;44104;-76
2022/01/15 12:57:08;;;;;;;6.87;5.90;;;16.00;64.50;;;;;;5107328;27;45050;-76
2022/01/15 12:59:38;;;;;;;7.13;6.53;;;16.00;62.40;;;;;;5112505;27;44331;-75
2022/01/15 13:02:09;;;;;;;7.00;6.40;;;15.90;60.40;;;;;;5115663;27;43462;-75
2022/01/15 13:04:37;;;;;;;6.80;6.23;;;15.80;59.80;;;;;;5127336;27;43599;-76
2022/01/15 13:07:06;;;;;;;6.27;5.77;;;15.80;56.20;;;;;;5109282;27;44013;-76
2022/01/15 13:09:42;;;;;;;6.70;6.20;;;15.80;56.40;;;;;;5106129;27;44830;-77
2022/01/15 13:12:12;;;;;;;6.17;5.83;;;15.90;57.20;;;;;;5106086;27;43955;-77
2022/01/15 13:14:41;;;;;;;6.20;5.70;;;15.90;57.60;;;;;;5128024;27;44007;-77
2022/01/15 13:17:24;;;;;;;14.43;6.07;;;15.90;58.10;;;;;;5127052;27;43992;-77
2022/01/15 13:19:52;;;;;;;19.40;6.37;;;15.90;59.20;;;;;;5127143;27;44008;-77
2022/01/15 13:22:21;;;;;;;7.93;6.13;;;15.80;59.80;;;;;;5125703;27;43939;-77